createdAt,value
2019-03-27T00:01:50.748Z,7.50
2019-03-27T00:04:54.686Z,7.17
2019-03-27T00:07:58.588Z,7.50
2019-03-27T00:11:02.429Z,7.77
2019-03-27T00:14:06.305Z,7.27
2019-03-27T00:17:10.167Z,7.70
2019-03-27T00:20:14.168Z,7.00
2019-03-27T00:23:18.024Z,6.80
2019-03-27T00:26:21.899Z,7.37
2019-03-27T00:29:25.778Z,8.23
2019-03-27T00:32:29.685Z,7.63
2019-03-27T00:35:33.558Z,7.80
2019-03-27T00:38:37.386Z,7.97
2019-03-27T00:41:41.256Z,6.73
2019-03-27T00:44:45.142Z,8.53
2019-03-27T00:47:49.031Z,7.60
2019-03-27T00:50:52.975Z,8.43
2019-03-27T00:53:56.841Z,7.67
2019-03-27T00:57:00.746Z,7.50
2019-03-27T01:00:10.321Z,7.40
2019-03-27T01:03:14.172Z,7.73
2019-03-27T01:06:18.056Z,7.47
2019-03-27T01:09:22.053Z,7.80
2019-03-27T01:12:26.826Z,7.10
2019-03-27T01:15:39.621Z,8.20
2019-03-27T01:18:36.165Z,7.80
2019-03-27T01:21:40.006Z,8.57
2019-03-27T01:24:43.891Z,7.90
2019-03-27T01:27:47.766Z,8.50
2019-03-27T01:30:51.631Z,8.17
2019-03-27T01:33:55.541Z,8.17
2019-03-27T01:36:59.427Z,8.13
2019-03-27T01:40:03.286Z,8.53
2019-03-27T01:43:07.191Z,8.93
2019-03-27T01:46:11.061Z,8.87
2019-03-27T01:49:14.941Z,7.93
2019-03-27T01:52:18.821Z,8.73
2019-03-27T01:55:22.726Z,9.13
2019-03-27T01:58:26.638Z,9.60
2019-03-27T02:01:30.444Z,9.13
2019-03-27T02:04:34.310Z,10.07
2019-03-27T02:07:38.172Z,9.80
2019-03-27T02:10:42.051Z,10.80
2019-03-27T02:13:46.032Z,10.67
2019-03-27T02:16:49.951Z,11.37
2019-03-27T02:19:53.846Z,10.20
2019-03-27T02:22:57.681Z,8.97
2019-03-27T02:26:01.581Z,9.63
2019-03-27T02:29:05.407Z,10.67
2019-03-27T02:32:09.308Z,9.90
2019-03-27T02:35:13.152Z,8.30
2019-03-27T02:38:17.034Z,8.50
2019-03-27T02:41:20.887Z,8.13
2019-03-27T02:44:24.791Z,8.60
2019-03-27T02:47:28.651Z,8.27
2019-03-27T02:50:32.492Z,8.57
2019-03-27T02:53:36.492Z,8.47
2019-03-27T02:56:40.331Z,8.40
2019-03-27T02:59:44.225Z,8.33
2019-03-27T03:02:48.052Z,8.40
2019-03-27T03:05:51.927Z,7.90
2019-03-27T03:08:55.822Z,8.30
2019-03-27T03:11:59.828Z,7.77
2019-03-27T03:15:05.737Z,7.53
2019-03-27T03:18:09.588Z,7.40
2019-03-27T03:21:13.467Z,7.40
2019-03-27T03:24:17.325Z,8.37
2019-03-27T03:27:21.214Z,8.77
2019-03-27T03:30:25.202Z,9.90
2019-03-27T03:33:29.091Z,11.83
2019-03-27T03:36:32.938Z,11.27
2019-03-27T03:39:36.787Z,11.47
2019-03-27T03:42:40.667Z,9.90
2019-03-27T03:45:46.042Z,9.83
2019-03-27T03:48:49.881Z,9.40
2019-03-27T03:51:53.752Z,9.70
2019-03-27T03:54:57.924Z,15.33
2019-03-27T03:58:02.432Z,15.33
2019-03-27T04:01:07.152Z,12.87
2019-03-27T04:04:11.657Z,11.47
2019-03-27T04:07:15.502Z,8.40
2019-03-27T04:10:19.429Z,8.37
2019-03-27T04:13:23.331Z,9.27
2019-03-27T04:16:27.269Z,10.33
2019-03-27T04:19:31.120Z,9.27
2019-03-27T04:22:35.612Z,9.57
2019-03-27T04:26:07.314Z,8.37
2019-03-27T04:28:45.617Z,9.00
2019-03-27T04:31:49.456Z,8.80
2019-03-27T04:34:53.337Z,9.53
2019-03-27T04:37:57.233Z,9.93
2019-03-27T04:41:01.066Z,10.27
2019-03-27T04:44:04.977Z,10.00
2019-03-27T04:47:08.815Z,9.97
2019-03-27T04:50:12.701Z,9.43
2019-03-27T04:53:16.526Z,9.83
2019-03-27T04:56:20.426Z,9.60
2019-03-27T04:59:24.260Z,9.90
2019-03-27T05:02:28.181Z,9.73
2019-03-27T05:05:32.077Z,10.03
2019-03-27T05:08:36.019Z,9.07
2019-03-27T05:11:39.907Z,10.10
2019-03-27T05:14:43.751Z,10.43
2019-03-27T05:17:47.612Z,9.70
2019-03-27T05:20:51.516Z,9.80
2019-03-27T05:23:55.372Z,10.60
2019-03-27T05:26:59.261Z,10.87
2019-03-27T05:30:03.241Z,10.37
2019-03-27T05:33:07.116Z,11.03
2019-03-27T05:36:11.012Z,10.27
2019-03-27T05:39:14.902Z,9.73
2019-03-27T05:42:18.850Z,9.50
2019-03-27T05:45:22.697Z,10.23
2019-03-27T05:48:26.586Z,10.53
2019-03-27T05:51:30.571Z,11.77
2019-03-27T05:54:34.405Z,10.93
2019-03-27T05:57:38.323Z,10.20
2019-03-27T06:00:42.158Z,10.90
2019-03-27T06:03:46.071Z,8.67
2019-03-27T06:06:50.022Z,9.03
2019-03-27T06:09:53.913Z,8.40
2019-03-27T06:12:57.810Z,8.83
2019-03-27T06:16:01.657Z,10.17
2019-03-27T06:19:05.548Z,10.10
2019-03-27T06:22:09.446Z,10.77
2019-03-27T06:25:13.457Z,10.60
2019-03-27T06:28:17.301Z,10.23
2019-03-27T06:31:21.336Z,10.75
2019-03-27T06:34:25.241Z,10.10
2019-03-27T06:37:29.183Z,10.43
2019-03-27T06:40:33.122Z,10.63
2019-03-27T06:43:36.981Z,9.50
2019-03-27T06:46:40.841Z,9.88
2019-03-27T06:49:44.909Z,10.45
2019-03-27T06:52:48.782Z,10.85
2019-03-27T06:55:53.715Z,9.20
2019-03-27T06:58:57.613Z,9.10
2019-03-27T07:02:01.661Z,9.93
2019-03-27T07:05:06.932Z,10.20
2019-03-27T07:08:10.869Z,10.25
2019-03-27T07:11:14.736Z,10.20
2019-03-27T07:14:18.634Z,10.93
2019-03-27T07:17:22.835Z,10.20
2019-03-27T07:20:26.756Z,10.32
2019-03-27T07:23:30.730Z,10.80
2019-03-27T07:26:34.624Z,10.10
2019-03-27T07:29:38.483Z,9.58
2019-03-27T07:32:42.382Z,9.85
2019-03-27T07:35:46.220Z,10.28
2019-03-27T07:38:50.124Z,10.43
2019-03-27T07:41:53.936Z,10.00
2019-03-27T07:44:57.819Z,9.27
2019-03-27T07:48:01.669Z,8.78
2019-03-27T07:51:07.122Z,8.43
2019-03-27T07:54:11.016Z,9.68
2019-03-27T07:57:14.904Z,11.15
2019-03-27T08:00:21.911Z,11.10
2019-03-27T08:03:25.813Z,10.55
2019-03-27T08:06:29.666Z,10.33
2019-03-27T08:09:33.562Z,10.50
2019-03-27T08:12:37.456Z,10.47
2019-03-27T08:15:41.479Z,10.70
2019-03-27T08:18:45.347Z,11.20
2019-03-27T08:21:49.201Z,11.53
2019-03-27T08:24:53.082Z,12.57
2019-03-27T08:27:56.947Z,12.63
2019-03-27T08:31:00.800Z,12.57
2019-03-27T08:34:04.676Z,10.13
2019-03-27T08:37:08.550Z,9.90
2019-03-27T08:40:13.812Z,9.67
2019-03-27T08:43:21.512Z,9.17
2019-03-27T08:46:23.185Z,8.57
2019-03-27T08:49:27.116Z,8.53
2019-03-27T08:52:30.941Z,8.57
2019-03-27T08:55:34.845Z,7.30
2019-03-27T08:58:38.838Z,7.07
2019-03-27T09:01:42.787Z,7.80
2019-03-27T09:04:46.627Z,8.67
2019-03-27T09:07:50.566Z,9.57
2019-03-27T09:10:54.457Z,8.63
2019-03-27T09:13:58.331Z,8.57
2019-03-27T09:17:02.247Z,7.27
2019-03-27T09:20:07.647Z,7.07
2019-03-27T09:23:11.483Z,7.27
2019-03-27T09:26:15.446Z,8.40
2019-03-27T09:29:19.283Z,7.77
2019-03-27T09:32:23.173Z,7.70
2019-03-27T09:35:27.045Z,7.57
2019-03-27T09:38:30.961Z,7.80
2019-03-27T09:41:34.835Z,6.90
2019-03-27T09:44:38.708Z,7.47
2019-03-27T09:47:42.566Z,6.50
2019-03-27T09:50:46.459Z,6.53
2019-03-27T09:53:53.049Z,6.20
2019-03-27T09:56:55.812Z,6.20
2019-03-27T09:59:59.649Z,5.63
2019-03-27T10:03:03.627Z,5.20
2019-03-27T10:06:07.576Z,5.20
2019-03-27T10:09:11.467Z,6.03
2019-03-27T10:12:15.297Z,5.07
2019-03-27T10:15:19.335Z,5.27
2019-03-27T10:18:23.323Z,5.17
2019-03-27T10:21:27.191Z,4.37
2019-03-27T10:24:31.192Z,4.47
2019-03-27T10:27:35.127Z,4.60
2019-03-27T10:30:38.943Z,4.87
2019-03-27T10:33:42.842Z,4.37
2019-03-27T10:36:46.721Z,4.10
2019-03-27T10:39:50.662Z,4.08
2019-03-27T10:42:54.528Z,4.35
2019-03-27T10:46:08.159Z,4.30
2019-03-27T10:49:11.991Z,4.30
2019-03-27T10:52:16.026Z,4.53
2019-03-27T10:55:19.888Z,4.77
2019-03-27T10:58:24.377Z,4.67
2019-03-27T11:01:28.337Z,4.47
2019-03-27T11:04:32.239Z,4.90
2019-03-27T11:07:36.071Z,4.83
2019-03-27T11:10:39.996Z,5.33
2019-03-27T11:13:43.841Z,5.70
2019-03-27T11:16:47.766Z,5.30
2019-03-27T11:19:51.751Z,6.30
2019-03-27T11:22:55.704Z,5.80
2019-03-27T11:25:59.543Z,6.13
2019-03-27T11:29:03.450Z,7.03
2019-03-27T11:32:07.309Z,6.40
2019-03-27T11:35:12.330Z,6.50
2019-03-27T11:38:16.170Z,6.77
2019-03-27T11:41:20.047Z,5.73
2019-03-27T11:44:23.902Z,5.63
2019-03-27T11:47:27.782Z,6.00
2019-03-27T11:50:44.103Z,5.50
2019-03-27T11:53:37.208Z,5.67
2019-03-27T11:56:41.230Z,5.40
2019-03-27T11:59:53.930Z,5.43
2019-03-27T12:02:50.703Z,5.30
2019-03-27T12:05:54.588Z,5.63
2019-03-27T12:08:58.532Z,5.13
2019-03-27T12:12:02.453Z,5.10
2019-03-27T12:15:08.571Z,5.40
2019-03-27T12:18:14.501Z,5.30
2019-03-27T12:21:18.347Z,5.43
2019-03-27T12:24:22.302Z,5.23
2019-03-27T12:27:27.052Z,5.90
2019-03-27T12:30:30.926Z,4.97
2019-03-27T12:33:34.786Z,5.60
2019-03-27T12:36:38.685Z,5.87
2019-03-27T12:39:42.849Z,5.90
2019-03-27T12:42:46.742Z,6.30
2019-03-27T12:45:52.142Z,6.63
2019-03-27T12:48:56.123Z,6.67
2019-03-27T12:51:59.977Z,6.10
2019-03-27T12:55:05.854Z,6.23
2019-03-27T12:58:11.711Z,6.13
2019-03-27T13:01:15.259Z,6.07
2019-03-27T13:04:19.151Z,6.50
2019-03-27T13:07:23.064Z,6.90
2019-03-27T13:10:26.900Z,7.47
2019-03-27T13:13:30.833Z,7.97
2019-03-27T13:16:34.877Z,8.27
2019-03-27T13:19:38.826Z,7.30
2019-03-27T13:22:42.687Z,7.10
2019-03-27T13:25:46.577Z,7.17
2019-03-27T13:28:50.447Z,6.63
2019-03-27T13:31:54.391Z,6.80
2019-03-27T13:34:59.791Z,7.17
2019-03-27T13:38:03.642Z,6.27
2019-03-27T13:41:07.502Z,7.60
2019-03-27T13:44:11.452Z,6.37
2019-03-27T13:47:15.383Z,6.60
2019-03-27T13:50:20.467Z,6.30
2019-03-27T13:53:24.305Z,6.60
2019-03-27T13:56:28.250Z,6.60
2019-03-27T13:59:32.125Z,6.60
2019-03-27T14:02:36.042Z,6.80
2019-03-27T14:05:39.872Z,6.47
2019-03-27T14:08:43.749Z,6.30
2019-03-27T14:11:47.612Z,6.93
2019-03-27T14:14:51.567Z,7.80
2019-03-27T14:17:55.761Z,7.60
2019-03-27T14:20:59.701Z,7.70
2019-03-27T14:24:03.542Z,6.73
2019-03-27T14:27:07.482Z,7.40
2019-03-27T14:30:15.129Z,7.20
2019-03-27T14:33:19.287Z,7.60
2019-03-27T14:36:23.434Z,7.90
2019-03-27T14:39:27.300Z,7.80
2019-03-27T14:42:31.135Z,7.97
2019-03-27T14:45:35.032Z,7.63
2019-03-27T14:48:38.903Z,7.90
2019-03-27T14:51:42.782Z,8.27
2019-03-27T14:54:46.704Z,7.70
2019-03-27T14:57:50.582Z,7.97
2019-03-27T15:00:54.525Z,8.70
2019-03-27T15:03:58.596Z,8.00
2019-03-27T15:07:02.438Z,9.03
2019-03-27T15:10:08.581Z,9.17
2019-03-27T15:13:15.183Z,8.47
2019-03-27T15:16:17.909Z,8.70
2019-03-27T15:19:22.854Z,8.33
2019-03-27T15:22:27.965Z,8.70
2019-03-27T15:25:31.869Z,8.43
2019-03-27T15:28:35.721Z,9.47
2019-03-27T15:31:39.584Z,8.43
2019-03-27T15:34:43.455Z,8.97
2019-03-27T15:37:47.484Z,9.33
2019-03-27T15:40:51.457Z,9.53
2019-03-27T15:43:55.356Z,9.37
2019-03-27T15:46:59.243Z,10.37
2019-03-27T15:50:03.813Z,9.13
2019-03-27T15:53:07.681Z,8.70
2019-03-27T15:56:11.537Z,10.85
2019-03-27T15:59:16.507Z,10.50
2019-03-27T16:02:20.551Z,10.90
2019-03-27T16:05:24.462Z,12.33
2019-03-27T16:08:28.357Z,10.63
2019-03-27T16:11:32.312Z,10.77
2019-03-27T16:14:36.257Z,11.87
2019-03-27T16:17:40.143Z,11.80
2019-03-27T16:20:44.101Z,11.43
2019-03-27T16:23:48.103Z,11.13
2019-03-27T16:27:03.880Z,12.10
2019-03-27T16:29:57.638Z,13.40
2019-03-27T16:33:01.942Z,13.23
2019-03-27T16:36:05.933Z,13.23
2019-03-27T16:39:09.982Z,13.60
2019-03-27T16:42:13.891Z,12.67
2019-03-27T16:45:18.189Z,13.90
2019-03-27T16:48:22.202Z,14.73
2019-03-27T16:51:26.155Z,16.03
2019-03-27T16:54:30.200Z,15.60
2019-03-27T16:57:34.215Z,17.30
2019-03-27T17:00:39.123Z,17.23
2019-03-27T17:03:43.057Z,17.90
2019-03-27T17:06:46.995Z,18.60
2019-03-27T17:09:50.861Z,19.60
2019-03-27T17:12:54.842Z,18.37
2019-03-27T17:15:58.675Z,20.30
2019-03-27T17:19:02.607Z,24.80
2019-03-27T17:22:18.989Z,26.00
2019-03-27T17:25:12.167Z,22.47
2019-03-27T17:28:16.171Z,25.23
2019-03-27T17:31:20.638Z,26.13
2019-03-27T17:34:24.927Z,28.37
2019-03-27T17:37:29.203Z,24.97
2019-03-27T17:40:33.275Z,27.30
2019-03-27T17:43:37.281Z,30.07
2019-03-27T17:46:41.373Z,31.93
2019-03-27T17:49:46.047Z,33.27
2019-03-27T17:52:49.930Z,32.47
2019-03-27T17:55:54.105Z,30.87
2019-03-27T17:58:58.020Z,32.53
2019-03-27T18:02:02.091Z,40.43
2019-03-27T18:05:07.576Z,39.80
2019-03-27T18:08:11.656Z,39.17
2019-03-27T18:11:17.037Z,38.90
2019-03-27T18:14:21.117Z,35.77
2019-03-27T18:17:26.562Z,35.50
2019-03-27T18:20:30.494Z,38.63
2019-03-27T18:23:45.142Z,39.30
2019-03-27T18:26:40.396Z,39.83
2019-03-27T18:29:44.430Z,30.57
2019-03-27T18:32:48.466Z,29.33
2019-03-27T18:35:52.662Z,29.93
2019-03-27T18:38:57.221Z,30.83
2019-03-27T18:42:01.101Z,31.90
2019-03-27T18:45:07.632Z,31.70
2019-03-27T18:48:11.567Z,32.50
2019-03-27T18:51:15.591Z,34.77
2019-03-27T18:54:19.474Z,37.83
2019-03-27T18:57:27.489Z,37.60
2019-03-27T19:00:31.597Z,37.77
2019-03-27T19:03:35.666Z,37.70
2019-03-27T19:06:39.575Z,36.67
2019-03-27T19:09:43.532Z,38.80
2019-03-27T19:12:47.432Z,40.53
2019-03-27T19:15:51.626Z,42.57
2019-03-27T19:18:55.686Z,43.43
2019-03-27T19:21:59.660Z,41.37
2019-03-27T19:25:04.247Z,41.03
2019-03-27T19:28:08.203Z,41.37
2019-03-27T19:31:12.142Z,41.03
2019-03-27T19:34:16.197Z,44.93
2019-03-27T19:37:20.334Z,48.70
2019-03-27T19:40:24.365Z,44.93
2019-03-27T19:43:28.405Z,45.43
2019-03-27T19:46:32.465Z,44.80
2019-03-27T19:49:36.351Z,42.23
2019-03-27T19:52:40.332Z,40.73
2019-03-27T19:55:44.296Z,40.57
2019-03-27T19:58:49.206Z,38.67
2019-03-27T20:01:53.358Z,39.13
2019-03-27T20:04:58.796Z,36.50
2019-03-27T20:08:04.384Z,37.77
2019-03-27T20:11:08.431Z,37.37
2019-03-27T20:14:12.813Z,36.03
2019-03-27T20:17:16.942Z,36.23
2019-03-27T20:20:21.014Z,36.23
2019-03-27T20:23:24.961Z,35.47
2019-03-27T20:26:28.925Z,34.77
2019-03-27T20:29:32.812Z,34.30
2019-03-27T20:32:38.348Z,35.67
2019-03-27T20:35:42.248Z,32.17
2019-03-27T20:38:46.256Z,33.33
2019-03-27T20:41:50.266Z,31.93
2019-03-27T20:44:54.221Z,32.90
2019-03-27T20:47:58.258Z,33.00
2019-03-27T20:51:02.243Z,32.50
2019-03-27T20:54:06.182Z,31.77
2019-03-27T20:57:10.066Z,32.57
2019-03-27T21:00:14.888Z,32.93
2019-03-27T21:03:18.842Z,32.27
2019-03-27T21:06:23.736Z,31.57
2019-03-27T21:09:27.563Z,31.90
2019-03-27T21:12:31.462Z,34.57
2019-03-27T21:15:38.456Z,31.63
2019-03-27T21:18:41.233Z,31.73
2019-03-27T21:21:45.058Z,30.63
2019-03-27T21:24:48.925Z,31.63
2019-03-27T21:27:52.804Z,30.30
2019-03-27T21:30:56.687Z,31.77
2019-03-27T21:34:00.615Z,31.27
2019-03-27T21:37:04.496Z,32.47
2019-03-27T21:40:09.670Z,31.53
2019-03-27T21:43:13.525Z,31.97
2019-03-27T21:46:17.388Z,31.60
2019-03-27T21:49:21.301Z,31.73
2019-03-27T21:52:25.748Z,31.73
2019-03-27T21:55:41.877Z,31.37
2019-03-27T21:58:35.186Z,33.47
2019-03-27T22:01:39.005Z,33.17
2019-03-27T22:04:42.921Z,31.30
2019-03-27T22:07:46.732Z,31.07
2019-03-27T22:10:50.582Z,30.20
2019-03-27T22:13:54.472Z,29.80
2019-03-27T22:16:58.305Z,31.07
2019-03-27T22:20:02.173Z,31.57
2019-03-27T22:23:06.028Z,30.43
2019-03-27T22:26:09.929Z,33.10
2019-03-27T22:29:13.726Z,33.00
2019-03-27T22:32:17.586Z,30.03
2019-03-27T22:35:21.431Z,30.87
2019-03-27T22:38:25.325Z,31.20
2019-03-27T22:41:29.167Z,32.70
2019-03-27T22:44:33.030Z,30.83
2019-03-27T22:47:36.848Z,30.90
2019-03-27T22:50:40.729Z,31.67
2019-03-27T22:53:44.561Z,30.93
2019-03-27T22:56:48.436Z,31.03
2019-03-27T22:59:52.570Z,31.43
2019-03-27T23:02:56.418Z,30.10
2019-03-27T23:06:00.239Z,31.30
2019-03-27T23:09:04.620Z,32.50
2019-03-27T23:12:08.459Z,32.87
2019-03-27T23:15:12.431Z,31.80
2019-03-27T23:18:16.295Z,32.73
2019-03-27T23:21:20.165Z,32.90
2019-03-27T23:24:24.008Z,33.60
2019-03-27T23:27:27.870Z,33.70
2019-03-27T23:30:31.703Z,33.80
2019-03-27T23:33:35.559Z,32.40
2019-03-27T23:36:39.389Z,34.50
2019-03-27T23:39:43.266Z,35.20
2019-03-27T23:42:47.102Z,36.47
2019-03-27T23:45:50.976Z,37.03
2019-03-27T23:48:54.800Z,36.00
2019-03-27T23:51:58.669Z,36.13
2019-03-27T23:55:02.506Z,36.77
2019-03-27T23:58:06.410Z,35.97
